sensor_id;sensor_type;location;lat;lon;timestamp;P1;durP1;ratioP1;P2;durP2;ratioP2
57567;SDS011;43403;51.948;5.922;2022-08-19T00:01:33;7.00;;;4.78;;
57567;SDS011;43403;51.948;5.922;2022-08-19T00:12:02;5.63;;;5.13;;
57567;SDS011;43403;51.948;5.922;2022-08-19T00:14:29;6.07;;;4.63;;
57567;SDS011;43403;51.948;5.922;2022-08-19T00:16:59;6.13;;;4.55;;
57567;SDS011;43403;51.948;5.922;2022-08-19T00:19:26;4.65;;;3.97;;
57567;SDS011;43403;51.948;5.922;2022-08-19T00:21:53;4.95;;;4.40;;
57567;SDS011;43403;51.948;5.922;2022-08-19T00:24:20;4.27;;;3.87;;
57567;SDS011;43403;51.948;5.922;2022-08-19T00:26:46;4.60;;;4.05;;
57567;SDS011;43403;51.948;5.922;2022-08-19T00:29:14;4.22;;;3.83;;
57567;SDS011;43403;51.948;5.922;2022-08-19T00:31:43;5.88;;;4.10;;
57567;SDS011;43403;51.948;5.922;2022-08-19T00:34:11;5.38;;;4.30;;
57567;SDS011;43403;51.948;5.922;2022-08-19T00:36:39;6.65;;;4.28;;
57567;SDS011;43403;51.948;5.922;2022-08-19T00:39:07;6.18;;;4.53;;
57567;SDS011;43403;51.948;5.922;2022-08-19T00:41:34;6.15;;;4.55;;
57567;SDS011;43403;51.948;5.922;2022-08-19T00:44:10;5.15;;;4.45;;
57567;SDS011;43403;51.948;5.922;2022-08-19T00:46:42;5.20;;;4.05;;
57567;SDS011;43403;51.948;5.922;2022-08-19T00:52:03;6.10;;;4.75;;
57567;SDS011;43403;51.948;5.922;2022-08-19T00:54:35;7.65;;;5.70;;
57567;SDS011;43403;51.948;5.922;2022-08-19T00:57:04;5.60;;;4.90;;
57567;SDS011;43403;51.948;5.922;2022-08-19T00:59:34;6.63;;;5.18;;
57567;SDS011;43403;51.948;5.922;2022-08-19T01:02:23;5.72;;;5.13;;
57567;SDS011;43403;51.948;5.922;2022-08-19T01:04:50;6.10;;;5.00;;
57567;SDS011;43403;51.948;5.922;2022-08-19T01:07:16;7.25;;;4.95;;
57567;SDS011;43403;51.948;5.922;2022-08-19T01:09:44;7.45;;;5.15;;
57567;SDS011;43403;51.948;5.922;2022-08-19T01:12:11;6.57;;;5.38;;
57567;SDS011;43403;51.948;5.922;2022-08-19T01:14:38;5.65;;;4.80;;
57567;SDS011;43403;51.948;5.922;2022-08-19T01:17:09;6.63;;;5.55;;
57567;SDS011;43403;51.948;5.922;2022-08-19T01:19:39;7.30;;;5.75;;
57567;SDS011;43403;51.948;5.922;2022-08-19T01:22:25;8.05;;;6.30;;
57567;SDS011;43403;51.948;5.922;2022-08-19T01:24:59;7.90;;;6.32;;
57567;SDS011;43403;51.948;5.922;2022-08-19T01:27:27;7.50;;;6.68;;
57567;SDS011;43403;51.948;5.922;2022-08-19T01:30:10;9.18;;;7.35;;
57567;SDS011;43403;51.948;5.922;2022-08-19T01:32:40;9.63;;;6.82;;
57567;SDS011;43403;51.948;5.922;2022-08-19T01:35:06;9.63;;;7.63;;
57567;SDS011;43403;51.948;5.922;2022-08-19T01:40:35;12.05;;;8.85;;
57567;SDS011;43403;51.948;5.922;2022-08-19T01:43:04;11.70;;;8.30;;
57567;SDS011;43403;51.948;5.922;2022-08-19T01:45:32;9.50;;;7.70;;
57567;SDS011;43403;51.948;5.922;2022-08-19T01:48:00;9.63;;;8.05;;
57567;SDS011;43403;51.948;5.922;2022-08-19T01:52:55;12.05;;;8.88;;
57567;SDS011;43403;51.948;5.922;2022-08-19T01:55:31;11.27;;;9.10;;
57567;SDS011;43403;51.948;5.922;2022-08-19T01:57:58;11.23;;;9.57;;
57567;SDS011;43403;51.948;5.922;2022-08-19T02:00:27;12.68;;;10.35;;
57567;SDS011;43403;51.948;5.922;2022-08-19T02:02:55;13.70;;;10.55;;
57567;SDS011;43403;51.948;5.922;2022-08-19T02:05:22;13.10;;;9.77;;
57567;SDS011;43403;51.948;5.922;2022-08-19T02:07:49;14.02;;;10.25;;
57567;SDS011;43403;51.948;5.922;2022-08-19T02:10:18;16.13;;;11.50;;
57567;SDS011;43403;51.948;5.922;2022-08-19T02:12:47;14.07;;;10.73;;
57567;SDS011;43403;51.948;5.922;2022-08-19T02:15:16;13.30;;;11.90;;
57567;SDS011;43403;51.948;5.922;2022-08-19T02:17:45;16.33;;;11.05;;
57567;SDS011;43403;51.948;5.922;2022-08-19T02:20:13;12.02;;;10.38;;
57567;SDS011;43403;51.948;5.922;2022-08-19T02:22:41;11.68;;;10.35;;
57567;SDS011;43403;51.948;5.922;2022-08-19T02:25:09;12.32;;;11.02;;
57567;SDS011;43403;51.948;5.922;2022-08-19T02:27:37;15.10;;;11.52;;
57567;SDS011;43403;51.948;5.922;2022-08-19T02:30:05;14.23;;;11.57;;
57567;SDS011;43403;51.948;5.922;2022-08-19T02:32:39;14.85;;;11.65;;
57567;SDS011;43403;51.948;5.922;2022-08-19T02:35:19;13.80;;;11.68;;
57567;SDS011;43403;51.948;5.922;2022-08-19T02:37:46;13.63;;;11.60;;
57567;SDS011;43403;51.948;5.922;2022-08-19T02:40:32;16.58;;;11.68;;
57567;SDS011;43403;51.948;5.922;2022-08-19T02:43:01;14.13;;;12.32;;
57567;SDS011;43403;51.948;5.922;2022-08-19T02:45:34;13.45;;;11.40;;
57567;SDS011;43403;51.948;5.922;2022-08-19T02:48:05;15.57;;;11.20;;
57567;SDS011;43403;51.948;5.922;2022-08-19T02:50:47;13.32;;;11.90;;
57567;SDS011;43403;51.948;5.922;2022-08-19T02:53:18;14.00;;;12.52;;
57567;SDS011;43403;51.948;5.922;2022-08-19T02:55:45;14.05;;;11.82;;
57567;SDS011;43403;51.948;5.922;2022-08-19T02:58:13;13.73;;;12.25;;
57567;SDS011;43403;51.948;5.922;2022-08-19T03:00:44;12.98;;;11.57;;
57567;SDS011;43403;51.948;5.922;2022-08-19T03:03:13;13.68;;;11.65;;
57567;SDS011;43403;51.948;5.922;2022-08-19T03:05:40;15.75;;;12.50;;
57567;SDS011;43403;51.948;5.922;2022-08-19T03:08:22;15.50;;;12.40;;
57567;SDS011;43403;51.948;5.922;2022-08-19T03:10:48;14.98;;;12.45;;
57567;SDS011;43403;51.948;5.922;2022-08-19T03:13:15;15.73;;;13.15;;
57567;SDS011;43403;51.948;5.922;2022-08-19T03:15:44;14.23;;;11.65;;
57567;SDS011;43403;51.948;5.922;2022-08-19T03:18:12;14.45;;;11.93;;
57567;SDS011;43403;51.948;5.922;2022-08-19T03:20:46;14.38;;;12.85;;
57567;SDS011;43403;51.948;5.922;2022-08-19T03:23:15;13.43;;;11.70;;
57567;SDS011;43403;51.948;5.922;2022-08-19T03:25:43;14.07;;;11.88;;
57567;SDS011;43403;51.948;5.922;2022-08-19T03:28:23;12.90;;;11.60;;
57567;SDS011;43403;51.948;5.922;2022-08-19T03:31:04;14.80;;;12.52;;
57567;SDS011;43403;51.948;5.922;2022-08-19T03:33:53;13.20;;;11.40;;
57567;SDS011;43403;51.948;5.922;2022-08-19T03:36:21;12.90;;;11.55;;
57567;SDS011;43403;51.948;5.922;2022-08-19T03:38:51;14.80;;;11.95;;
57567;SDS011;43403;51.948;5.922;2022-08-19T03:41:28;16.55;;;13.38;;
57567;SDS011;43403;51.948;5.922;2022-08-19T03:44:10;13.18;;;11.75;;
57567;SDS011;43403;51.948;5.922;2022-08-19T03:46:43;16.30;;;12.18;;
57567;SDS011;43403;51.948;5.922;2022-08-19T03:49:10;13.63;;;12.02;;
57567;SDS011;43403;51.948;5.922;2022-08-19T03:51:40;15.85;;;12.80;;
57567;SDS011;43403;51.948;5.922;2022-08-19T03:54:08;14.90;;;12.73;;
57567;SDS011;43403;51.948;5.922;2022-08-19T03:56:37;15.18;;;12.25;;
57567;SDS011;43403;51.948;5.922;2022-08-19T03:59:06;16.02;;;12.88;;
57567;SDS011;43403;51.948;5.922;2022-08-19T04:01:35;15.55;;;12.18;;
57567;SDS011;43403;51.948;5.922;2022-08-19T04:04:01;13.43;;;12.02;;
57567;SDS011;43403;51.948;5.922;2022-08-19T04:06:30;16.10;;;12.55;;
57567;SDS011;43403;51.948;5.922;2022-08-19T04:09:00;16.38;;;12.20;;
57567;SDS011;43403;51.948;5.922;2022-08-19T04:11:51;12.95;;;11.57;;
57567;SDS011;43403;51.948;5.922;2022-08-19T04:14:20;14.68;;;11.63;;
57567;SDS011;43403;51.948;5.922;2022-08-19T04:16:50;17.13;;;12.00;;
57567;SDS011;43403;51.948;5.922;2022-08-19T04:19:17;12.35;;;10.98;;
57567;SDS011;43403;51.948;5.922;2022-08-19T04:21:45;13.32;;;11.13;;
57567;SDS011;43403;51.948;5.922;2022-08-19T04:24:14;12.73;;;10.38;;
57567;SDS011;43403;51.948;5.922;2022-08-19T04:26:40;15.73;;;10.98;;
57567;SDS011;43403;51.948;5.922;2022-08-19T04:29:09;14.50;;;11.63;;
57567;SDS011;43403;51.948;5.922;2022-08-19T04:31:38;13.88;;;11.05;;
57567;SDS011;43403;51.948;5.922;2022-08-19T04:34:06;11.82;;;10.20;;
57567;SDS011;43403;51.948;5.922;2022-08-19T04:39:03;12.52;;;9.85;;
57567;SDS011;43403;51.948;5.922;2022-08-19T04:41:32;13.43;;;11.02;;
57567;SDS011;43403;51.948;5.922;2022-08-19T04:44:18;13.20;;;9.68;;
57567;SDS011;43403;51.948;5.922;2022-08-19T04:46:45;11.27;;;9.20;;
57567;SDS011;43403;51.948;5.922;2022-08-19T04:49:17;14.18;;;11.20;;
57567;SDS011;43403;51.948;5.922;2022-08-19T04:51:47;13.45;;;10.65;;
57567;SDS011;43403;51.948;5.922;2022-08-19T04:54:16;12.10;;;10.60;;
57567;SDS011;43403;51.948;5.922;2022-08-19T04:57:04;16.63;;;11.05;;
57567;SDS011;43403;51.948;5.922;2022-08-19T04:59:33;15.55;;;10.93;;
57567;SDS011;43403;51.948;5.922;2022-08-19T05:02:00;13.80;;;10.68;;
57567;SDS011;43403;51.948;5.922;2022-08-19T05:04:26;15.07;;;10.40;;
57567;SDS011;43403;51.948;5.922;2022-08-19T05:06:57;14.65;;;10.88;;
57567;SDS011;43403;51.948;5.922;2022-08-19T05:09:26;13.93;;;11.23;;
57567;SDS011;43403;51.948;5.922;2022-08-19T05:11:58;14.55;;;11.30;;
57567;SDS011;43403;51.948;5.922;2022-08-19T05:14:24;13.15;;;11.25;;
57567;SDS011;43403;51.948;5.922;2022-08-19T05:16:51;13.13;;;10.35;;
57567;SDS011;43403;51.948;5.922;2022-08-19T05:19:37;12.07;;;10.52;;
57567;SDS011;43403;51.948;5.922;2022-08-19T05:22:22;14.63;;;11.43;;
57567;SDS011;43403;51.948;5.922;2022-08-19T05:25:11;12.90;;;11.32;;
57567;SDS011;43403;51.948;5.922;2022-08-19T05:27:40;13.90;;;12.25;;
57567;SDS011;43403;51.948;5.922;2022-08-19T05:30:08;15.82;;;12.27;;
57567;SDS011;43403;51.948;5.922;2022-08-19T05:32:35;15.65;;;12.00;;
57567;SDS011;43403;51.948;5.922;2022-08-19T05:35:03;11.98;;;10.30;;
57567;SDS011;43403;51.948;5.922;2022-08-19T05:37:30;14.95;;;12.52;;
57567;SDS011;43403;51.948;5.922;2022-08-19T05:39:56;16.27;;;11.70;;
57567;SDS011;43403;51.948;5.922;2022-08-19T05:42:23;15.82;;;12.75;;
57567;SDS011;43403;51.948;5.922;2022-08-19T05:44:49;15.43;;;12.15;;
57567;SDS011;43403;51.948;5.922;2022-08-19T05:47:17;17.95;;;14.68;;
57567;SDS011;43403;51.948;5.922;2022-08-19T05:49:45;16.05;;;13.07;;
57567;SDS011;43403;51.948;5.922;2022-08-19T05:52:13;20.13;;;14.93;;
57567;SDS011;43403;51.948;5.922;2022-08-19T05:54:44;19.75;;;16.20;;
57567;SDS011;43403;51.948;5.922;2022-08-19T05:57:17;18.83;;;15.68;;
57567;SDS011;43403;51.948;5.922;2022-08-19T05:59:46;20.10;;;14.35;;
57567;SDS011;43403;51.948;5.922;2022-08-19T06:02:18;17.73;;;14.82;;
57567;SDS011;43403;51.948;5.922;2022-08-19T06:04:44;23.60;;;16.10;;
57567;SDS011;43403;51.948;5.922;2022-08-19T06:07:11;23.15;;;17.35;;
57567;SDS011;43403;51.948;5.922;2022-08-19T06:09:38;20.95;;;16.45;;
57567;SDS011;43403;51.948;5.922;2022-08-19T06:12:05;24.17;;;17.90;;
57567;SDS011;43403;51.948;5.922;2022-08-19T06:14:33;29.45;;;19.83;;
57567;SDS011;43403;51.948;5.922;2022-08-19T06:17:07;27.25;;;18.92;;
57567;SDS011;43403;51.948;5.922;2022-08-19T06:19:34;28.58;;;20.45;;
57567;SDS011;43403;51.948;5.922;2022-08-19T06:22:06;32.92;;;19.77;;
57567;SDS011;43403;51.948;5.922;2022-08-19T06:24:33;26.52;;;17.95;;
57567;SDS011;43403;51.948;5.922;2022-08-19T06:27:01;26.60;;;18.77;;
57567;SDS011;43403;51.948;5.922;2022-08-19T06:29:28;29.53;;;19.50;;
57567;SDS011;43403;51.948;5.922;2022-08-19T06:31:57;77.55;;;22.50;;
57567;SDS011;43403;51.948;5.922;2022-08-19T06:34:25;46.67;;;22.27;;
57567;SDS011;43403;51.948;5.922;2022-08-19T06:36:54;37.58;;;21.27;;
57567;SDS011;43403;51.948;5.922;2022-08-19T06:39:24;28.67;;;21.13;;
57567;SDS011;43403;51.948;5.922;2022-08-19T06:41:53;26.67;;;20.27;;
57567;SDS011;43403;51.948;5.922;2022-08-19T06:44:24;26.48;;;19.98;;
57567;SDS011;43403;51.948;5.922;2022-08-19T06:46:55;31.73;;;24.08;;
57567;SDS011;43403;51.948;5.922;2022-08-19T06:49:22;31.70;;;22.83;;
57567;SDS011;43403;51.948;5.922;2022-08-19T06:51:49;43.40;;;28.80;;
57567;SDS011;43403;51.948;5.922;2022-08-19T06:54:17;35.17;;;23.90;;
57567;SDS011;43403;51.948;5.922;2022-08-19T06:56:45;51.15;;;30.90;;
57567;SDS011;43403;51.948;5.922;2022-08-19T06:59:13;53.78;;;33.45;;
57567;SDS011;43403;51.948;5.922;2022-08-19T07:01:45;62.78;;;34.30;;
57567;SDS011;43403;51.948;5.922;2022-08-19T07:04:15;75.78;;;37.80;;
57567;SDS011;43403;51.948;5.922;2022-08-19T07:06:44;76.57;;;38.92;;
57567;SDS011;43403;51.948;5.922;2022-08-19T07:09:20;86.40;;;38.55;;
57567;SDS011;43403;51.948;5.922;2022-08-19T07:11:47;88.85;;;41.28;;
57567;SDS011;43403;51.948;5.922;2022-08-19T07:14:16;100.97;;;42.67;;
57567;SDS011;43403;51.948;5.922;2022-08-19T07:16:45;76.70;;;37.10;;
57567;SDS011;43403;51.948;5.922;2022-08-19T07:19:13;78.07;;;37.92;;
57567;SDS011;43403;51.948;5.922;2022-08-19T07:21:44;84.75;;;41.10;;
57567;SDS011;43403;51.948;5.922;2022-08-19T07:24:12;82.35;;;40.88;;
57567;SDS011;43403;51.948;5.922;2022-08-19T07:26:39;89.82;;;39.13;;
57567;SDS011;43403;51.948;5.922;2022-08-19T07:29:08;84.43;;;39.70;;
57567;SDS011;43403;51.948;5.922;2022-08-19T07:31:36;82.00;;;38.45;;
57567;SDS011;43403;51.948;5.922;2022-08-19T07:34:04;84.65;;;39.42;;
57567;SDS011;43403;51.948;5.922;2022-08-19T07:36:36;84.30;;;39.08;;
57567;SDS011;43403;51.948;5.922;2022-08-19T07:39:16;79.10;;;38.88;;
57567;SDS011;43403;51.948;5.922;2022-08-19T07:41:45;76.85;;;38.60;;
57567;SDS011;43403;51.948;5.922;2022-08-19T07:44:12;75.00;;;38.50;;
57567;SDS011;43403;51.948;5.922;2022-08-19T07:46:41;74.57;;;39.53;;
57567;SDS011;43403;51.948;5.922;2022-08-19T07:49:13;79.22;;;42.22;;
57567;SDS011;43403;51.948;5.922;2022-08-19T07:51:46;84.72;;;43.45;;
57567;SDS011;43403;51.948;5.922;2022-08-19T07:54:18;87.18;;;46.75;;
57567;SDS011;43403;51.948;5.922;2022-08-19T07:56:46;87.18;;;44.17;;
57567;SDS011;43403;51.948;5.922;2022-08-19T07:59:12;88.68;;;49.33;;
57567;SDS011;43403;51.948;5.922;2022-08-19T08:01:39;80.28;;;48.53;;
57567;SDS011;43403;51.948;5.922;2022-08-19T08:04:07;76.30;;;45.95;;
57567;SDS011;43403;51.948;5.922;2022-08-19T08:06:52;74.60;;;47.40;;
57567;SDS011;43403;51.948;5.922;2022-08-19T08:09:39;69.82;;;45.42;;
57567;SDS011;43403;51.948;5.922;2022-08-19T08:12:15;73.18;;;49.60;;
57567;SDS011;43403;51.948;5.922;2022-08-19T08:15:01;66.88;;;46.50;;
57567;SDS011;43403;51.948;5.922;2022-08-19T08:17:33;64.32;;;44.83;;
57567;SDS011;43403;51.948;5.922;2022-08-19T08:20:15;70.68;;;47.63;;
57567;SDS011;43403;51.948;5.922;2022-08-19T08:22:43;57.60;;;43.47;;
57567;SDS011;43403;51.948;5.922;2022-08-19T08:25:29;65.88;;;45.97;;
57567;SDS011;43403;51.948;5.922;2022-08-19T08:27:59;60.70;;;44.88;;
57567;SDS011;43403;51.948;5.922;2022-08-19T08:30:27;57.78;;;42.08;;
57567;SDS011;43403;51.948;5.922;2022-08-19T08:32:57;60.28;;;44.78;;
57567;SDS011;43403;51.948;5.922;2022-08-19T08:35:24;61.00;;;42.22;;
57567;SDS011;43403;51.948;5.922;2022-08-19T08:37:52;51.75;;;37.47;;
57567;SDS011;43403;51.948;5.922;2022-08-19T08:42:55;53.40;;;38.03;;
57567;SDS011;43403;51.948;5.922;2022-08-19T08:45:34;55.17;;;37.72;;
57567;SDS011;43403;51.948;5.922;2022-08-19T08:48:12;52.05;;;36.22;;
57567;SDS011;43403;51.948;5.922;2022-08-19T08:50:49;51.70;;;34.83;;
57567;SDS011;43403;51.948;5.922;2022-08-19T08:53:20;43.92;;;32.88;;
57567;SDS011;43403;51.948;5.922;2022-08-19T08:55:57;40.05;;;27.27;;
57567;SDS011;43403;51.948;5.922;2022-08-19T08:58:49;36.60;;;26.48;;
57567;SDS011;43403;51.948;5.922;2022-08-19T09:01:20;39.90;;;25.42;;
57567;SDS011;43403;51.948;5.922;2022-08-19T09:03:46;42.28;;;29.08;;
57567;SDS011;43403;51.948;5.922;2022-08-19T09:06:20;37.08;;;25.13;;
57567;SDS011;43403;51.948;5.922;2022-08-19T09:11:56;39.63;;;25.67;;
57567;SDS011;43403;51.948;5.922;2022-08-19T09:14:53;35.60;;;23.05;;
57567;SDS011;43403;51.948;5.922;2022-08-19T09:17:25;32.03;;;22.25;;
57567;SDS011;43403;51.948;5.922;2022-08-19T09:19:58;32.63;;;24.52;;
57567;SDS011;43403;51.948;5.922;2022-08-19T09:22:51;31.20;;;21.95;;
57567;SDS011;43403;51.948;5.922;2022-08-19T09:25:19;38.13;;;25.67;;
57567;SDS011;43403;51.948;5.922;2022-08-19T09:27:54;33.75;;;23.48;;
57567;SDS011;43403;51.948;5.922;2022-08-19T09:30:29;31.80;;;23.33;;
57567;SDS011;43403;51.948;5.922;2022-08-19T09:32:59;30.85;;;22.83;;
57567;SDS011;43403;51.948;5.922;2022-08-19T09:35:26;38.95;;;25.40;;
57567;SDS011;43403;51.948;5.922;2022-08-19T09:38:15;36.92;;;25.50;;
57567;SDS011;43403;51.948;5.922;2022-08-19T09:40:41;40.95;;;27.35;;
57567;SDS011;43403;51.948;5.922;2022-08-19T09:43:08;37.05;;;25.27;;
57567;SDS011;43403;51.948;5.922;2022-08-19T09:45:38;41.17;;;29.23;;
57567;SDS011;43403;51.948;5.922;2022-08-19T09:48:06;40.47;;;27.80;;
57567;SDS011;43403;51.948;5.922;2022-08-19T09:50:34;38.42;;;28.77;;
57567;SDS011;43403;51.948;5.922;2022-08-19T09:53:02;42.10;;;27.55;;
57567;SDS011;43403;51.948;5.922;2022-08-19T09:55:31;38.60;;;28.10;;
57567;SDS011;43403;51.948;5.922;2022-08-19T09:57:59;36.55;;;26.08;;
57567;SDS011;43403;51.948;5.922;2022-08-19T10:00:26;41.15;;;27.90;;
57567;SDS011;43403;51.948;5.922;2022-08-19T10:02:53;44.50;;;27.80;;
57567;SDS011;43403;51.948;5.922;2022-08-19T10:05:19;36.55;;;26.50;;
57567;SDS011;43403;51.948;5.922;2022-08-19T10:08:07;39.83;;;25.90;;
57567;SDS011;43403;51.948;5.922;2022-08-19T10:10:39;36.53;;;25.88;;
57567;SDS011;43403;51.948;5.922;2022-08-19T10:13:13;34.65;;;23.08;;
57567;SDS011;43403;51.948;5.922;2022-08-19T10:15:41;30.33;;;21.70;;
57567;SDS011;43403;51.948;5.922;2022-08-19T10:18:13;31.50;;;21.42;;
57567;SDS011;43403;51.948;5.922;2022-08-19T10:20:42;30.60;;;21.63;;
57567;SDS011;43403;51.948;5.922;2022-08-19T10:23:09;29.38;;;20.90;;
57567;SDS011;43403;51.948;5.922;2022-08-19T10:25:35;30.13;;;21.30;;
57567;SDS011;43403;51.948;5.922;2022-08-19T10:28:03;27.77;;;21.77;;
57567;SDS011;43403;51.948;5.922;2022-08-19T10:30:35;27.65;;;20.38;;
57567;SDS011;43403;51.948;5.922;2022-08-19T10:33:03;33.45;;;21.70;;
57567;SDS011;43403;51.948;5.922;2022-08-19T10:35:36;30.70;;;21.13;;
57567;SDS011;43403;51.948;5.922;2022-08-19T10:38:22;25.83;;;19.88;;
57567;SDS011;43403;51.948;5.922;2022-08-19T10:40:58;30.55;;;21.20;;
57567;SDS011;43403;51.948;5.922;2022-08-19T10:43:32;27.73;;;18.95;;
57567;SDS011;43403;51.948;5.922;2022-08-19T10:46:03;29.05;;;20.30;;
57567;SDS011;43403;51.948;5.922;2022-08-19T10:48:39;32.50;;;22.70;;
57567;SDS011;43403;51.948;5.922;2022-08-19T10:51:06;31.88;;;21.10;;
57567;SDS011;43403;51.948;5.922;2022-08-19T10:53:52;30.38;;;20.25;;
57567;SDS011;43403;51.948;5.922;2022-08-19T10:56:19;28.05;;;20.08;;
57567;SDS011;43403;51.948;5.922;2022-08-19T10:59:04;28.98;;;21.02;;
57567;SDS011;43403;51.948;5.922;2022-08-19T11:01:31;29.42;;;22.40;;
57567;SDS011;43403;51.948;5.922;2022-08-19T11:04:00;28.50;;;20.50;;
57567;SDS011;43403;51.948;5.922;2022-08-19T11:06:28;29.05;;;20.77;;
57567;SDS011;43403;51.948;5.922;2022-08-19T11:08:56;36.92;;;22.65;;
57567;SDS011;43403;51.948;5.922;2022-08-19T11:11:26;26.80;;;20.17;;
57567;SDS011;43403;51.948;5.922;2022-08-19T11:13:54;26.92;;;18.80;;
57567;SDS011;43403;51.948;5.922;2022-08-19T11:16:24;26.75;;;19.52;;
57567;SDS011;43403;51.948;5.922;2022-08-19T11:18:53;26.80;;;18.63;;
57567;SDS011;43403;51.948;5.922;2022-08-19T11:21:28;26.50;;;20.05;;
57567;SDS011;43403;51.948;5.922;2022-08-19T11:24:01;23.92;;;17.92;;
57567;SDS011;43403;51.948;5.922;2022-08-19T11:26:33;28.92;;;20.20;;
57567;SDS011;43403;51.948;5.922;2022-08-19T11:29:02;25.70;;;19.17;;
57567;SDS011;43403;51.948;5.922;2022-08-19T11:31:30;25.88;;;17.65;;
57567;SDS011;43403;51.948;5.922;2022-08-19T11:33:59;31.15;;;20.65;;
57567;SDS011;43403;51.948;5.922;2022-08-19T11:36:29;25.48;;;18.95;;
57567;SDS011;43403;51.948;5.922;2022-08-19T11:38:57;21.23;;;16.80;;
57567;SDS011;43403;51.948;5.922;2022-08-19T11:41:23;27.40;;;20.35;;
57567;SDS011;43403;51.948;5.922;2022-08-19T11:43:51;22.90;;;17.00;;
57567;SDS011;43403;51.948;5.922;2022-08-19T11:46:20;24.83;;;18.23;;
57567;SDS011;43403;51.948;5.922;2022-08-19T11:48:48;22.75;;;17.83;;
57567;SDS011;43403;51.948;5.922;2022-08-19T11:51:17;24.23;;;19.10;;
57567;SDS011;43403;51.948;5.922;2022-08-19T11:53:46;23.20;;;18.60;;
57567;SDS011;43403;51.948;5.922;2022-08-19T11:56:12;23.08;;;17.85;;
57567;SDS011;43403;51.948;5.922;2022-08-19T11:58:39;28.40;;;19.50;;
57567;SDS011;43403;51.948;5.922;2022-08-19T12:01:08;28.50;;;17.75;;
57567;SDS011;43403;51.948;5.922;2022-08-19T12:03:37;25.20;;;17.10;;
57567;SDS011;43403;51.948;5.922;2022-08-19T12:06:09;24.07;;;16.37;;
57567;SDS011;43403;51.948;5.922;2022-08-19T12:08:41;23.15;;;15.98;;
57567;SDS011;43403;51.948;5.922;2022-08-19T12:11:09;24.10;;;19.30;;
57567;SDS011;43403;51.948;5.922;2022-08-19T12:13:37;22.42;;;19.05;;
57567;SDS011;43403;51.948;5.922;2022-08-19T12:16:08;26.13;;;20.67;;
57567;SDS011;43403;51.948;5.922;2022-08-19T12:18:41;26.95;;;21.42;;
57567;SDS011;43403;51.948;5.922;2022-08-19T12:21:23;27.40;;;20.55;;
57567;SDS011;43403;51.948;5.922;2022-08-19T12:23:51;27.08;;;20.98;;
57567;SDS011;43403;51.948;5.922;2022-08-19T12:26:21;26.63;;;21.98;;
57567;SDS011;43403;51.948;5.922;2022-08-19T12:28:48;28.27;;;22.53;;
57567;SDS011;43403;51.948;5.922;2022-08-19T12:31:14;21.05;;;17.45;;
57567;SDS011;43403;51.948;5.922;2022-08-19T12:33:41;28.58;;;21.88;;
57567;SDS011;43403;51.948;5.922;2022-08-19T12:36:09;30.50;;;23.83;;
57567;SDS011;43403;51.948;5.922;2022-08-19T12:38:38;28.90;;;24.55;;
57567;SDS011;43403;51.948;5.922;2022-08-19T12:43:33;25.45;;;21.35;;
57567;SDS011;43403;51.948;5.922;2022-08-19T12:46:01;25.75;;;21.75;;
57567;SDS011;43403;51.948;5.922;2022-08-19T12:48:30;30.83;;;25.67;;
57567;SDS011;43403;51.948;5.922;2022-08-19T12:51:00;25.98;;;22.67;;
57567;SDS011;43403;51.948;5.922;2022-08-19T12:53:32;26.77;;;22.13;;
57567;SDS011;43403;51.948;5.922;2022-08-19T12:55:59;26.80;;;23.30;;
57567;SDS011;43403;51.948;5.922;2022-08-19T12:58:26;29.10;;;23.02;;
57567;SDS011;43403;51.948;5.922;2022-08-19T13:00:53;29.33;;;21.60;;
57567;SDS011;43403;51.948;5.922;2022-08-19T13:03:20;30.55;;;21.73;;
57567;SDS011;43403;51.948;5.922;2022-08-19T13:05:50;28.10;;;23.83;;
57567;SDS011;43403;51.948;5.922;2022-08-19T13:08:16;25.55;;;19.90;;
57567;SDS011;43403;51.948;5.922;2022-08-19T13:10:43;29.65;;;25.00;;
57567;SDS011;43403;51.948;5.922;2022-08-19T13:13:10;30.73;;;23.90;;
57567;SDS011;43403;51.948;5.922;2022-08-19T13:15:37;29.90;;;24.33;;
57567;SDS011;43403;51.948;5.922;2022-08-19T13:18:07;31.15;;;27.17;;
57567;SDS011;43403;51.948;5.922;2022-08-19T13:20:35;30.10;;;24.75;;
57567;SDS011;43403;51.948;5.922;2022-08-19T13:23:03;23.52;;;20.70;;
57567;SDS011;43403;51.948;5.922;2022-08-19T13:25:30;29.85;;;23.75;;
57567;SDS011;43403;51.948;5.922;2022-08-19T13:27:57;25.93;;;22.63;;
57567;SDS011;43403;51.948;5.922;2022-08-19T13:30:23;29.13;;;24.38;;
57567;SDS011;43403;51.948;5.922;2022-08-19T13:33:08;23.08;;;19.13;;
57567;SDS011;43403;51.948;5.922;2022-08-19T13:38:08;20.70;;;17.07;;
57567;SDS011;43403;51.948;5.922;2022-08-19T13:40:37;23.98;;;20.45;;
57567;SDS011;43403;51.948;5.922;2022-08-19T13:43:06;25.77;;;21.52;;
57567;SDS011;43403;51.948;5.922;2022-08-19T13:45:49;22.73;;;18.92;;
57567;SDS011;43403;51.948;5.922;2022-08-19T13:48:18;23.42;;;19.95;;
57567;SDS011;43403;51.948;5.922;2022-08-19T13:50:45;20.15;;;17.85;;
57567;SDS011;43403;51.948;5.922;2022-08-19T13:53:13;18.48;;;16.58;;
57567;SDS011;43403;51.948;5.922;2022-08-19T13:55:41;18.65;;;16.13;;
57567;SDS011;43403;51.948;5.922;2022-08-19T13:58:09;20.25;;;15.35;;
57567;SDS011;43403;51.948;5.922;2022-08-19T14:00:39;19.00;;;16.88;;
57567;SDS011;43403;51.948;5.922;2022-08-19T14:03:08;21.48;;;18.65;;
57567;SDS011;43403;51.948;5.922;2022-08-19T14:05:35;25.63;;;22.58;;
57567;SDS011;43403;51.948;5.922;2022-08-19T14:08:01;24.70;;;20.93;;
57567;SDS011;43403;51.948;5.922;2022-08-19T14:10:29;23.58;;;20.50;;
57567;SDS011;43403;51.948;5.922;2022-08-19T14:12:57;20.42;;;17.85;;
57567;SDS011;43403;51.948;5.922;2022-08-19T14:15:25;21.00;;;17.85;;
57567;SDS011;43403;51.948;5.922;2022-08-19T14:17:52;26.63;;;21.40;;
57567;SDS011;43403;51.948;5.922;2022-08-19T14:20:20;25.45;;;21.40;;
57567;SDS011;43403;51.948;5.922;2022-08-19T14:22:51;23.35;;;20.38;;
57567;SDS011;43403;51.948;5.922;2022-08-19T14:27:47;25.38;;;19.30;;
57567;SDS011;43403;51.948;5.922;2022-08-19T14:30:15;25.20;;;19.52;;
57567;SDS011;43403;51.948;5.922;2022-08-19T14:32:45;23.80;;;20.73;;
57567;SDS011;43403;51.948;5.922;2022-08-19T14:35:12;22.08;;;17.73;;
57567;SDS011;43403;51.948;5.922;2022-08-19T14:37:41;23.58;;;18.42;;
57567;SDS011;43403;51.948;5.922;2022-08-19T14:40:12;24.15;;;18.35;;
57567;SDS011;43403;51.948;5.922;2022-08-19T14:42:41;24.83;;;19.70;;
57567;SDS011;43403;51.948;5.922;2022-08-19T14:45:08;24.10;;;20.60;;
57567;SDS011;43403;51.948;5.922;2022-08-19T14:47:36;29.20;;;20.13;;
57567;SDS011;43403;51.948;5.922;2022-08-19T14:50:08;23.08;;;18.55;;
57567;SDS011;43403;51.948;5.922;2022-08-19T14:52:43;21.77;;;17.33;;
57567;SDS011;43403;51.948;5.922;2022-08-19T14:55:11;19.63;;;16.52;;
57567;SDS011;43403;51.948;5.922;2022-08-19T14:57:37;19.40;;;15.13;;
57567;SDS011;43403;51.948;5.922;2022-08-19T15:00:06;18.42;;;13.60;;
57567;SDS011;43403;51.948;5.922;2022-08-19T15:02:33;16.13;;;13.73;;
57567;SDS011;43403;51.948;5.922;2022-08-19T15:05:01;17.45;;;12.82;;
57567;SDS011;43403;51.948;5.922;2022-08-19T15:07:28;16.15;;;11.45;;
57567;SDS011;43403;51.948;5.922;2022-08-19T15:09:55;12.95;;;9.57;;
57567;SDS011;43403;51.948;5.922;2022-08-19T15:12:22;13.75;;;9.68;;
57567;SDS011;43403;51.948;5.922;2022-08-19T15:14:50;11.45;;;8.02;;